Time;durP1;ratioP1;P1;durP2;ratioP2;P2;SDS_P1;SDS_P2;PMS_P1;PMS_P2;Temp;Humidity;BMP_temperature;BMP_pressure;BME280_temperature;BME280_humidity;BME280_pressure;Samples;Min_cycle;Max_cycle;Signal;HPM_P1;HPM_P2
2023/08/27 00:00:59;;;;;;;4.03;3.47;;;19.90;89.90;;;;;;5033049;28;20061;-62
2023/08/27 00:03:25;;;;;;;3.80;3.50;;;19.90;90.00;;;;;;5033743;28;20033;-62
2023/08/27 00:05:51;;;;;;;5.05;3.85;;;19.80;90.10;;;;;;5034453;28;20470;-62
2023/08/27 00:08:17;;;;;;;3.90;3.50;;;19.80;90.20;;;;;;5033163;28;20029;-62
2023/08/27 00:10:42;;;;;;;4.43;3.58;;;19.80;90.10;;;;;;5031070;28;20048;-62
2023/08/27 00:13:08;;;;;;;4.93;3.53;;;19.80;90.10;;;;;;5032846;28;20037;-62
2023/08/27 00:15:33;;;;;;;3.90;3.58;;;19.80;90.10;;;;;;5034072;28;20136;-62
2023/08/27 00:17:59;;;;;;;5.47;3.55;;;19.80;90.10;;;;;;5032411;28;20033;-62
2023/08/27 00:20:25;;;;;;;4.13;3.30;;;19.80;90.20;;;;;;5032604;28;20405;-62
2023/08/27 00:22:50;;;;;;;3.97;3.22;;;19.80;90.20;;;;;;5032519;28;20029;-62
2023/08/27 00:25:16;;;;;;;4.45;3.53;;;19.80;90.20;;;;;;5034278;28;20041;-62
2023/08/27 00:27:42;;;;;;;4.03;3.50;;;19.80;90.20;;;;;;5034027;28;20104;-62
2023/08/27 00:30:09;;;;;;;4.60;3.20;;;19.80;90.30;;;;;;5032437;28;20124;-62
2023/08/27 00:32:34;;;;;;;6.18;3.40;;;19.90;90.30;;;;;;5031044;28;20064;-63
2023/08/27 00:35:03;;;;;;;3.88;3.47;;;19.90;90.30;;;;;;5033893;28;20057;-62
2023/08/27 00:37:29;;;;;;;3.88;3.50;;;19.90;90.20;;;;;;5033034;28;20030;-62
2023/08/27 00:39:54;;;;;;;3.72;3.42;;;19.90;90.20;;;;;;5032897;28;20045;-62
2023/08/27 00:42:20;;;;;;;3.78;3.45;;;19.90;90.10;;;;;;5033963;28;20041;-62
2023/08/27 00:44:47;;;;;;;3.92;3.42;;;19.90;90.10;;;;;;5031924;28;20030;-62
2023/08/27 00:47:13;;;;;;;6.70;3.63;;;19.90;90.10;;;;;;5034348;28;20040;-62
2023/08/27 00:49:39;;;;;;;4.60;3.53;;;19.90;90.10;;;;;;5031895;28;20038;-62
2023/08/27 00:52:07;;;;;;;4.57;3.30;;;19.90;90.10;;;;;;5033363;28;20566;-62
2023/08/27 00:54:33;;;;;;;3.60;3.30;;;19.90;90.10;;;;;;5032384;28;20567;-62
2023/08/27 00:56:59;;;;;;;3.97;3.53;;;19.90;90.40;;;;;;5033571;28;20045;-61
2023/08/27 00:59:26;;;;;;;6.72;4.03;;;19.90;90.00;;;;;;5036440;28;20045;-62
2023/08/27 01:01:52;;;;;;;4.10;3.70;;;19.90;89.90;;;;;;5031563;28;20461;-62
2023/08/27 01:04:17;;;;;;;3.75;3.30;;;19.90;90.00;;;;;;5036385;28;20121;-62
2023/08/27 01:06:43;;;;;;;5.05;3.47;;;19.90;90.00;;;;;;5037156;28;20117;-62
2023/08/27 01:09:15;;;;;;;4.82;3.65;;;19.80;90.10;;;;;;5034671;28;20108;-62
2023/08/27 01:11:49;;;;;;;4.13;3.60;;;19.80;90.10;;;;;;5034680;28;20044;-63
2023/08/27 01:14:16;;;;;;;3.65;3.35;;;19.90;90.10;;;;;;5038331;28;20541;-62
2023/08/27 01:16:43;;;;;;;4.25;3.85;;;19.80;90.00;;;;;;5038612;28;20570;-63
2023/08/27 01:19:16;;;;;;;4.95;4.07;;;19.80;89.90;;;;;;5038366;28;20033;-63
2023/08/27 01:21:43;;;;;;;5.53;3.88;;;19.70;90.00;;;;;;5037805;28;20238;-63
2023/08/27 01:24:09;;;;;;;5.97;4.18;;;19.60;90.00;;;;;;5036772;28;20037;-63
2023/08/27 01:26:56;;;;;;;6.13;4.15;;;19.60;90.20;;;;;;5035348;28;20728;-63
2023/08/27 01:29:38;;;;;;;6.05;3.85;;;19.60;90.30;;;;;;5034711;28;20037;-63
2023/08/27 01:32:30;;;;;;;4.50;3.92;;;19.50;90.50;;;;;;5036156;28;20220;-62
2023/08/27 01:34:57;;;;;;;4.55;3.83;;;19.40;90.60;;;;;;5038077;28;20037;-63
2023/08/27 01:37:24;;;;;;;4.72;4.30;;;19.40;90.60;;;;;;5035294;28;20037;-62
2023/08/27 01:40:05;;;;;;;4.60;4.05;;;19.30;90.60;;;;;;5048408;28;20043;-62
2023/08/27 01:42:30;;;;;;;4.68;4.28;;;19.30;90.90;;;;;;5033277;28;20303;-63
2023/08/27 01:44:56;;;;;;;5.35;4.40;;;19.30;90.80;;;;;;5031093;28;20094;-63
2023/08/27 01:47:22;;;;;;;6.00;4.03;;;19.30;90.90;;;;;;5032529;28;20044;-63
2023/08/27 01:49:48;;;;;;;4.57;3.92;;;19.30;90.90;;;;;;5027127;28;20041;-63
2023/08/27 01:52:14;;;;;;;4.15;3.83;;;19.40;91.40;;;;;;5033411;28;20044;-62
2023/08/27 01:54:40;;;;;;;5.30;4.18;;;19.40;90.90;;;;;;5031518;28;20404;-63
2023/08/27 01:57:05;;;;;;;7.10;4.35;;;19.40;90.90;;;;;;5033760;28;20501;-63
2023/08/27 01:59:31;;;;;;;5.18;4.43;;;19.50;90.90;;;;;;5030289;28;20044;-64
2023/08/27 02:01:57;;;;;;;8.00;4.45;;;19.50;90.90;;;;;;5029596;28;20041;-63
2023/08/27 02:04:22;;;;;;;4.95;4.45;;;19.50;90.90;;;;;;5025944;28;20033;-63
2023/08/27 02:06:48;;;;;;;6.25;4.35;;;19.50;91.00;;;;;;5030395;28;20218;-63
2023/08/27 02:09:15;;;;;;;5.95;4.45;;;19.50;91.00;;;;;;5030802;28;20034;-63
2023/08/27 02:11:41;;;;;;;6.95;4.90;;;19.50;90.90;;;;;;5034011;28;20564;-62
2023/08/27 02:14:06;;;;;;;6.80;4.70;;;19.60;90.90;;;;;;5030284;28;20218;-63
2023/08/27 02:16:33;;;;;;;5.38;4.88;;;19.60;90.90;;;;;;5026551;28;20125;-64
2023/08/27 02:18:59;;;;;;;5.38;4.88;;;19.60;91.00;;;;;;5026085;28;20041;-63
2023/08/27 02:21:24;;;;;;;6.03;4.32;;;19.60;90.90;;;;;;5027641;28;20033;-62
2023/08/27 02:23:50;;;;;;;5.63;4.90;;;19.60;90.90;;;;;;5023766;28;20678;-63
2023/08/27 02:26:16;;;;;;;5.25;4.40;;;19.70;91.00;;;;;;5029905;28;20041;-63
2023/08/27 02:28:41;;;;;;;7.75;4.90;;;19.70;90.90;;;;;;5029626;28;20497;-63
2023/08/27 02:31:08;;;;;;;5.03;4.63;;;19.70;90.90;;;;;;5028601;28;20060;-63
2023/08/27 02:33:34;;;;;;;5.13;4.53;;;19.70;90.90;;;;;;5029386;28;20033;-63
2023/08/27 02:35:59;;;;;;;6.97;5.05;;;19.70;90.90;;;;;;5026265;28;20097;-63
2023/08/27 02:38:25;;;;;;;5.78;4.60;;;19.80;90.90;;;;;;5027818;28;20290;-62
2023/08/27 02:40:51;;;;;;;5.85;4.50;;;19.80;90.80;;;;;;5028598;28;20511;-62
2023/08/27 02:43:16;;;;;;;5.22;4.57;;;19.80;90.80;;;;;;5029990;28;20539;-63
2023/08/27 02:45:42;;;;;;;4.95;4.45;;;19.80;90.80;;;;;;5027955;28;20030;-63
2023/08/27 02:48:07;;;;;;;5.25;4.40;;;19.80;90.80;;;;;;5027318;28;20033;-63
2023/08/27 02:50:33;;;;;;;4.47;4.07;;;19.80;90.70;;;;;;5025410;28;20041;-63
2023/08/27 02:52:59;;;;;;;5.90;4.72;;;19.80;90.70;;;;;;5024368;28;20440;-63
2023/08/27 02:55:27;;;;;;;4.78;4.38;;;19.80;90.60;;;;;;5029299;28;20582;-63
2023/08/27 02:57:53;;;;;;;6.05;4.22;;;19.80;90.70;;;;;;5028882;28;20124;-62
2023/08/27 03:00:19;;;;;;;4.45;4.05;;;19.90;90.70;;;;;;5028901;28;20128;-63
2023/08/27 03:02:44;;;;;;;4.72;4.32;;;19.90;90.70;;;;;;5026973;28;20439;-63
2023/08/27 03:05:10;;;;;;;5.05;4.18;;;19.80;90.70;;;;;;5032531;28;20501;-63
2023/08/27 03:07:35;;;;;;;5.03;4.43;;;19.90;90.80;;;;;;5028886;28;20033;-62
2023/08/27 03:10:01;;;;;;;5.20;4.47;;;19.90;90.80;;;;;;5028809;28;20111;-63
2023/08/27 03:12:27;;;;;;;6.00;4.70;;;19.90;90.70;;;;;;5033987;28;20421;-62
2023/08/27 03:14:52;;;;;;;4.75;4.35;;;19.90;90.60;;;;;;5036471;28;20044;-63
2023/08/27 03:17:19;;;;;;;5.25;4.47;;;19.90;90.50;;;;;;5037009;28;20030;-62
2023/08/27 03:19:45;;;;;;;5.95;4.28;;;19.90;90.50;;;;;;5035476;28;20037;-63
2023/08/27 03:22:10;;;;;;;4.47;4.07;;;19.90;90.50;;;;;;5033267;28;20033;-62
2023/08/27 03:24:36;;;;;;;4.65;4.25;;;19.90;90.50;;;;;;5025661;28;20041;-63
2023/08/27 03:27:01;;;;;;;4.78;4.20;;;19.90;90.50;;;;;;5026151;28;20108;-63
2023/08/27 03:29:29;;;;;;;5.45;3.85;;;19.90;90.50;;;;;;5024908;28;20049;-62
2023/08/27 03:31:55;;;;;;;5.07;3.70;;;19.90;90.50;;;;;;5030113;28;20113;-62
2023/08/27 03:34:20;;;;;;;6.43;3.90;;;19.90;90.40;;;;;;5030787;28;20350;-61
2023/08/27 03:36:46;;;;;;;4.85;3.55;;;19.90;90.40;;;;;;5029893;28;20045;-62
2023/08/27 03:39:11;;;;;;;4.93;3.80;;;19.90;90.40;;;;;;5029697;28;20039;-62
2023/08/27 03:41:37;;;;;;;3.88;3.45;;;19.90;90.40;;;;;;5027498;28;20110;-62
2023/08/27 03:44:03;;;;;;;3.78;3.42;;;19.90;90.40;;;;;;5029951;28;20034;-63
2023/08/27 03:46:28;;;;;;;3.83;3.53;;;19.80;90.40;;;;;;5032080;28;20052;-62
2023/08/27 03:48:54;;;;;;;4.07;3.67;;;19.80;90.40;;;;;;5029928;28;20087;-63
2023/08/27 03:51:20;;;;;;;3.85;3.50;;;19.80;90.40;;;;;;5029475;28;20497;-63
2023/08/27 03:53:45;;;;;;;4.28;3.30;;;19.80;90.40;;;;;;5026640;28;20042;-62
2023/08/27 03:56:11;;;;;;;4.30;3.25;;;19.90;90.40;;;;;;5030695;28;20181;-63
2023/08/27 03:58:36;;;;;;;4.00;3.58;;;19.80;90.40;;;;;;5029502;28;20516;-63
2023/08/27 04:01:02;;;;;;;5.35;3.97;;;19.80;90.40;;;;;;5029244;28;20123;-63
2023/08/27 04:03:28;;;;;;;4.18;3.78;;;19.80;90.40;;;;;;5025235;28;20029;-62
2023/08/27 04:05:54;;;;;;;5.93;3.90;;;19.80;90.40;;;;;;5029254;28;20152;-63
2023/08/27 04:08:19;;;;;;;5.53;4.00;;;19.80;90.40;;;;;;5030114;28;20373;-63
2023/08/27 04:10:52;;;;;;;3.92;3.63;;;19.80;90.50;;;;;;5029525;28;20773;-62
2023/08/27 04:13:18;;;;;;;4.20;3.80;;;19.80;90.60;;;;;;5027949;28;20391;-62
2023/08/27 04:15:46;;;;;;;4.20;3.85;;;19.80;90.50;;;;;;5026989;28;20516;-62
2023/08/27 04:18:12;;;;;;;4.03;3.63;;;19.80;90.50;;;;;;5029819;28;20033;-62
2023/08/27 04:20:37;;;;;;;4.10;3.75;;;19.80;90.50;;;;;;5024641;28;20039;-63
2023/08/27 04:23:03;;;;;;;4.53;3.88;;;19.80;90.50;;;;;;5028953;28;20508;-62
2023/08/27 04:25:29;;;;;;;4.10;3.70;;;19.80;90.60;;;;;;5028305;28;20025;-63
2023/08/27 04:27:56;;;;;;;6.93;3.92;;;19.80;90.50;;;;;;5026871;28;20113;-63
2023/08/27 04:30:22;;;;;;;3.63;3.28;;;19.80;90.60;;;;;;5026602;28;20046;-63
2023/08/27 04:32:48;;;;;;;4.82;2.90;;;19.80;90.60;;;;;;5028663;28;20042;-62
2023/08/27 04:35:14;;;;;;;2.40;2.00;;;19.80;90.60;;;;;;5031018;28;20416;-63
2023/08/27 04:37:40;;;;;;;1.63;1.50;;;19.80;90.60;;;;;;5033436;28;20060;-62
2023/08/27 04:40:06;;;;;;;1.85;1.75;;;19.80;90.60;;;;;;5031499;28;20492;-62
2023/08/27 04:42:32;;;;;;;2.70;1.08;;;19.80;90.60;;;;;;5035756;28;20141;-62
2023/08/27 04:44:57;;;;;;;2.47;1.30;;;19.70;90.50;;;;;;5029657;28;20504;-63
2023/08/27 04:47:23;;;;;;;1.08;1.00;;;19.80;90.40;;;;;;5033137;28;20053;-62
2023/08/27 04:49:48;;;;;;;2.13;1.20;;;19.70;90.40;;;;;;5030519;28;20045;-62
2023/08/27 04:52:14;;;;;;;1.30;1.20;;;19.70;90.40;;;;;;5030513;28;20360;-63
2023/08/27 04:54:41;;;;;;;1.70;1.10;;;19.70;90.40;;;;;;5033875;28;20099;-63
2023/08/27 04:57:06;;;;;;;1.95;1.20;;;19.70;90.40;;;;;;5033603;28;20061;-63
2023/08/27 04:59:32;;;;;;;1.33;0.90;;;19.70;90.40;;;;;;5029173;28;20124;-62
2023/08/27 05:01:59;;;;;;;1.90;1.10;;;19.60;90.40;;;;;;5031285;28;20033;-62
2023/08/27 05:04:28;;;;;;;2.35;1.20;;;19.60;90.40;;;;;;5029813;28;20049;-62
2023/08/27 05:06:53;;;;;;;1.02;0.98;;;19.60;90.40;;;;;;5031553;28;20049;-63
2023/08/27 05:09:19;;;;;;;1.67;1.33;;;19.60;90.50;;;;;;5029873;28;20041;-61
2023/08/27 05:11:44;;;;;;;1.45;1.27;;;19.60;90.60;;;;;;5029920;28;20033;-62
2023/08/27 05:14:10;;;;;;;1.50;1.33;;;19.50;90.60;;;;;;5039266;28;20038;-63
2023/08/27 05:16:36;;;;;;;1.75;1.30;;;19.50;90.70;;;;;;5038012;28;20102;-63
2023/08/27 05:19:01;;;;;;;1.77;1.67;;;19.50;90.70;;;;;;5038124;28;20456;-62
2023/08/27 05:21:27;;;;;;;2.25;1.90;;;19.40;90.70;;;;;;5038247;28;20031;-62
2023/08/27 05:23:52;;;;;;;2.58;2.25;;;19.40;90.80;;;;;;5030890;28;20112;-62
2023/08/27 05:26:18;;;;;;;2.92;2.70;;;19.40;90.80;;;;;;5028129;28;20139;-62
2023/08/27 05:28:43;;;;;;;3.97;3.10;;;19.40;90.90;;;;;;5028112;28;20049;-63
2023/08/27 05:31:09;;;;;;;3.55;2.72;;;19.30;90.90;;;;;;5026165;28;20191;-61
2023/08/27 05:33:35;;;;;;;2.80;2.60;;;19.30;90.90;;;;;;5036434;28;20073;-63
2023/08/27 05:36:00;;;;;;;3.00;2.70;;;19.30;91.00;;;;;;5036654;28;20048;-62
2023/08/27 05:38:26;;;;;;;2.70;2.50;;;19.20;91.00;;;;;;5026886;28;20049;-61
2023/08/27 05:40:52;;;;;;;2.47;2.28;;;19.20;91.00;;;;;;5029364;28;20044;-61
2023/08/27 05:43:18;;;;;;;2.20;2.10;;;19.20;91.10;;;;;;5029734;28;20128;-62
2023/08/27 05:45:43;;;;;;;2.10;1.95;;;19.10;91.00;;;;;;5028758;28;20464;-63
2023/08/27 05:48:09;;;;;;;3.13;1.88;;;19.10;91.00;;;;;;5033740;28;20484;-62
2023/08/27 05:50:36;;;;;;;2.22;2.03;;;19.10;91.00;;;;;;5032927;28;20034;-63
2023/08/27 05:53:02;;;;;;;2.22;1.88;;;19.00;91.10;;;;;;5031737;28;20082;-63
2023/08/27 05:55:28;;;;;;;2.88;2.30;;;19.10;91.20;;;;;;5033715;28;20032;-62
2023/08/27 05:57:53;;;;;;;2.03;1.83;;;19.10;91.10;;;;;;5031474;28;20048;-63
2023/08/27 06:00:19;;;;;;;2.17;1.60;;;19.10;91.20;;;;;;5027351;28;20056;-62
2023/08/27 06:02:45;;;;;;;2.78;1.50;;;19.10;91.10;;;;;;5026517;28;20037;-63
2023/08/27 06:05:11;;;;;;;2.42;1.80;;;19.10;91.10;;;;;;5031896;28;20037;-62
2023/08/27 06:07:37;;;;;;;1.80;1.70;;;19.20;91.10;;;;;;5034136;28;20053;-61
2023/08/27 06:10:03;;;;;;;2.08;1.73;;;19.10;91.10;;;;;;5030523;28;20033;-61
2023/08/27 06:12:29;;;;;;;1.92;1.63;;;19.10;91.00;;;;;;5029800;28;20056;-63
2023/08/27 06:14:54;;;;;;;2.13;1.52;;;19.10;91.10;;;;;;5033470;28;20407;-62
2023/08/27 06:17:20;;;;;;;1.40;1.30;;;19.00;91.00;;;;;;5026510;28;20040;-62
2023/08/27 06:19:45;;;;;;;1.73;1.50;;;19.00;91.10;;;;;;5031080;28;20491;-61
2023/08/27 06:22:11;;;;;;;2.17;1.38;;;19.00;91.10;;;;;;5032201;28;20493;-62
2023/08/27 06:24:36;;;;;;;1.75;1.02;;;19.00;91.00;;;;;;5027858;28;20067;-62
2023/08/27 06:27:02;;;;;;;1.48;1.20;;;19.00;91.00;;;;;;5029210;28;20067;-62
2023/08/27 06:29:28;;;;;;;1.77;1.20;;;19.00;90.90;;;;;;5028271;28;20036;-62
2023/08/27 06:31:53;;;;;;;2.40;1.30;;;19.00;90.90;;;;;;5024802;28;20029;-61
2023/08/27 06:34:19;;;;;;;1.30;1.20;;;19.00;90.80;;;;;;5034099;28;20049;-62
2023/08/27 06:36:44;;;;;;;1.67;1.13;;;18.90;90.80;;;;;;5031164;28;20047;-62
2023/08/27 06:39:10;;;;;;;1.30;1.20;;;18.90;90.80;;;;;;5029020;28;20337;-62
2023/08/27 06:41:35;;;;;;;1.73;1.13;;;18.90;90.80;;;;;;5032660;28;20068;-62
2023/08/27 06:44:01;;;;;;;1.52;1.20;;;18.90;90.80;;;;;;5030179;28;20734;-62
2023/08/27 06:46:27;;;;;;;1.27;1.17;;;18.90;90.70;;;;;;5030716;28;20426;-63
2023/08/27 06:48:52;;;;;;;2.33;1.20;;;18.80;90.60;;;;;;5028473;28;20425;-62
2023/08/27 06:51:18;;;;;;;1.55;1.27;;;18.80;90.60;;;;;;5028537;28;20123;-63
2023/08/27 06:53:44;;;;;;;2.00;1.20;;;18.80;90.60;;;;;;5030115;28;20460;-63
2023/08/27 06:56:09;;;;;;;1.90;1.17;;;18.80;90.70;;;;;;5030783;28;20493;-62
2023/08/27 06:58:35;;;;;;;2.95;1.33;;;18.80;90.70;;;;;;5029829;28;20102;-62
2023/08/27 07:01:04;;;;;;;2.55;1.30;;;18.80;90.70;;;;;;5029055;28;20444;-62
2023/08/27 07:03:31;;;;;;;1.20;1.10;;;18.70;90.70;;;;;;5027828;28;20049;-62
2023/08/27 07:05:57;;;;;;;1.38;1.10;;;18.70;90.60;;;;;;5034518;28;20025;-62
2023/08/27 07:08:23;;;;;;;2.00;1.20;;;18.70;90.70;;;;;;5030913;28;20043;-62
2023/08/27 07:10:49;;;;;;;1.95;1.20;;;18.70;90.70;;;;;;5033777;28;20031;-62
2023/08/27 07:13:14;;;;;;;1.95;1.10;;;18.70;90.80;;;;;;5038068;28;20125;-62
2023/08/27 07:15:40;;;;;;;1.58;1.00;;;18.70;90.90;;;;;;5038050;28;20078;-61
2023/08/27 07:18:06;;;;;;;1.48;1.15;;;18.70;90.90;;;;;;5037723;28;20017;-62
2023/08/27 07:20:33;;;;;;;1.38;1.10;;;18.70;90.80;;;;;;5035800;28;20059;-62
2023/08/27 07:22:58;;;;;;;1.30;1.20;;;18.70;90.60;;;;;;5031183;28;20106;-62
2023/08/27 07:25:24;;;;;;;2.53;1.42;;;18.70;90.60;;;;;;5029195;28;20049;-62
2023/08/27 07:27:49;;;;;;;1.30;1.13;;;18.70;90.60;;;;;;5027477;28;20038;-62
2023/08/27 07:30:15;;;;;;;1.23;1.10;;;18.60;90.70;;;;;;5027811;28;20404;-62
2023/08/27 07:32:41;;;;;;;1.23;1.02;;;18.60;90.80;;;;;;5031896;28;20543;-62
2023/08/27 07:35:07;;;;;;;2.80;0.98;;;18.60;90.80;;;;;;5030587;28;20040;-62
2023/08/27 07:37:33;;;;;;;4.15;1.20;;;18.70;90.70;;;;;;5029913;28;20512;-62
2023/08/27 07:39:58;;;;;;;1.42;1.33;;;18.70;90.70;;;;;;5033556;28;20098;-62
2023/08/27 07:42:24;;;;;;;1.63;1.40;;;18.70;90.70;;;;;;5030665;28;20099;-61
2023/08/27 07:44:49;;;;;;;2.35;1.27;;;18.70;90.70;;;;;;5027856;28;20033;-62
2023/08/27 07:47:15;;;;;;;1.30;1.00;;;18.70;90.80;;;;;;5030406;28;20041;-62
2023/08/27 07:49:41;;;;;;;1.30;1.20;;;18.70;90.80;;;;;;5029044;28;20040;-62
2023/08/27 07:52:06;;;;;;;3.63;1.20;;;18.80;90.80;;;;;;5025737;28;20903;-61
2023/08/27 07:54:32;;;;;;;1.27;0.88;;;18.80;90.70;;;;;;5027593;28;20032;-61
2023/08/27 07:56:57;;;;;;;1.60;1.27;;;18.80;90.60;;;;;;5029058;28;20044;-61
2023/08/27 07:59:23;;;;;;;1.30;0.93;;;18.80;90.50;;;;;;5025521;28;20034;-61
2023/08/27 08:01:48;;;;;;;3.10;1.05;;;18.80;90.40;;;;;;5027946;28;20034;-62
2023/08/27 08:04:14;;;;;;;1.33;1.17;;;18.80;90.40;;;;;;5029905;28;20421;-62
2023/08/27 08:06:40;;;;;;;2.38;1.15;;;18.80;90.50;;;;;;5029995;28;20099;-62
2023/08/27 08:09:05;;;;;;;3.10;1.20;;;18.80;90.60;;;;;;5028692;28;20045;-62
2023/08/27 08:11:31;;;;;;;3.72;1.20;;;18.80;90.60;;;;;;5026356;28;20079;-61
2023/08/27 08:13:56;;;;;;;1.10;1.00;;;18.80;90.70;;;;;;5028400;28;20033;-62
2023/08/27 08:16:24;;;;;;;1.70;1.13;;;18.80;90.70;;;;;;5031258;28;20048;-60
2023/08/27 08:18:49;;;;;;;1.65;1.15;;;18.80;90.70;;;;;;5025931;28;20061;-60
2023/08/27 08:21:15;;;;;;;1.52;1.20;;;18.80;90.70;;;;;;5030170;28;20404;-62
2023/08/27 08:23:40;;;;;;;2.30;1.10;;;18.80;90.70;;;;;;5029862;28;20149;-62
2023/08/27 08:26:06;;;;;;;1.67;1.10;;;18.70;90.80;;;;;;5028616;28;20038;-61
2023/08/27 08:28:32;;;;;;;1.13;1.02;;;18.70;90.80;;;;;;5031583;28;20833;-61
2023/08/27 08:30:57;;;;;;;1.33;1.20;;;18.70;90.80;;;;;;5026531;28;20038;-61
2023/08/27 08:33:23;;;;;;;1.25;1.08;;;18.70;90.80;;;;;;5032448;28;20422;-61
2023/08/27 08:35:49;;;;;;;1.42;1.10;;;18.70;90.70;;;;;;5030545;28;20045;-61
2023/08/27 08:38:14;;;;;;;1.38;1.25;;;18.70;90.60;;;;;;5030394;28;20094;-61
2023/08/27 08:40:49;;;;;;;1.65;1.45;;;18.70;90.60;;;;;;5029210;28;20078;-61
2023/08/27 08:43:47;;;;;;;1.98;1.20;;;18.70;90.60;;;;;;5032191;28;20056;-61
2023/08/27 08:46:18;;;;;;;1.60;1.17;;;18.70;90.80;;;;;;5030598;28;20417;-61
2023/08/27 08:48:50;;;;;;;1.80;1.25;;;18.70;91.20;;;;;;5030940;28;20519;-61
2023/08/27 08:51:19;;;;;;;3.75;1.30;;;18.50;90.80;;;;;;5026051;28;20421;-61
2023/08/27 08:53:50;;;;;;;2.47;1.50;;;18.70;90.90;;;;;;5030612;28;20029;-60
2023/08/27 08:56:40;;;;;;;1.45;1.20;;;18.80;90.80;;;;;;5031706;28;20037;-61
2023/08/27 08:59:07;;;;;;;1.38;1.20;;;18.80;90.80;;;;;;5030003;28;20171;-62
2023/08/27 09:01:34;;;;;;;2.22;1.48;;;18.90;90.80;;;;;;5028648;28;20052;-61
2023/08/27 09:04:00;;;;;;;2.08;1.10;;;18.90;90.90;;;;;;5032896;28;20033;-62
2023/08/27 09:06:26;;;;;;;1.88;1.30;;;19.00;90.90;;;;;;5030655;28;20034;-61
2023/08/27 09:08:52;;;;;;;2.10;1.20;;;19.00;90.80;;;;;;5029788;28;20042;-58
2023/08/27 09:11:21;;;;;;;1.52;1.27;;;19.10;90.60;;;;;;5034422;28;20034;-62
2023/08/27 09:13:47;;;;;;;1.60;1.20;;;19.20;90.50;;;;;;5036383;28;20029;-62
2023/08/27 09:16:13;;;;;;;2.45;1.10;;;19.30;90.30;;;;;;5036349;28;20036;-62
2023/08/27 09:18:38;;;;;;;1.30;0.80;;;19.30;90.30;;;;;;5035819;28;20037;-62
2023/08/27 09:21:06;;;;;;;1.33;1.00;;;19.30;90.10;;;;;;5038323;28;20025;-60
2023/08/27 09:23:37;;;;;;;1.25;1.15;;;19.30;90.10;;;;;;5032912;28;20032;-62
2023/08/27 09:26:03;;;;;;;2.00;1.17;;;19.40;89.80;;;;;;5032730;28;20394;-59
2023/08/27 09:28:29;;;;;;;1.73;1.27;;;19.40;89.50;;;;;;5030098;28;20037;-62
2023/08/27 09:30:54;;;;;;;1.45;1.20;;;19.40;89.30;;;;;;5029611;28;20032;-62
2023/08/27 09:33:41;;;;;;;1.77;1.27;;;19.30;89.30;;;;;;5037107;28;20033;-60
2023/08/27 09:36:08;;;;;;;1.35;1.05;;;19.40;89.50;;;;;;5032740;28;20033;-61
2023/08/27 09:38:34;;;;;;;3.05;1.30;;;19.40;89.60;;;;;;5032903;28;20076;-62
2023/08/27 09:41:30;;;;;;;1.15;1.05;;;19.40;89.20;;;;;;5034555;28;20168;-60
2023/08/27 09:43:56;;;;;;;1.63;1.30;;;19.40;88.20;;;;;;5033447;28;21848;-61
2023/08/27 09:46:21;;;;;;;1.80;1.17;;;19.50;88.50;;;;;;5034425;28;20033;-62
2023/08/27 09:49:07;;;;;;;1.98;1.33;;;19.50;88.30;;;;;;5025867;28;20025;-60
2023/08/27 09:51:33;;;;;;;;;;;19.50;88.10;;;;;;5033153;28;20134;-60
2023/08/27 09:53:59;;;;;;;1.50;1.10;;;19.50;88.30;;;;;;5030058;28;19952;-60
2023/08/27 09:56:26;;;;;;;1.33;1.10;;;19.60;88.30;;;;;;5030977;28;20477;-56
2023/08/27 09:58:55;;;;;;;1.20;1.00;;;19.50;88.00;;;;;;5033602;28;20103;-62
2023/08/27 10:01:33;;;;;;;1.15;1.05;;;19.50;87.40;;;;;;5029989;28;20041;-61
2023/08/27 10:04:03;;;;;;;1.52;0.93;;;19.60;88.00;;;;;;5032573;28;20044;-60
2023/08/27 10:06:34;;;;;;;1.90;1.08;;;19.60;88.10;;;;;;5038348;28;20064;-61
2023/08/27 10:09:00;;;;;;;3.33;1.20;;;19.60;88.10;;;;;;5034446;28;20043;-61
2023/08/27 10:11:26;;;;;;;3.22;1.33;;;19.60;88.10;;;;;;5031387;28;20511;-60
2023/08/27 10:13:52;;;;;;;1.45;1.05;;;19.60;88.00;;;;;;5037493;28;20041;-62
2023/08/27 10:16:18;;;;;;;1.17;1.08;;;19.60;89.10;;;;;;5037036;28;20578;-61
2023/08/27 10:18:45;;;;;;;0.85;0.80;;;19.60;88.30;;;;;;5034098;28;20053;-62
2023/08/27 10:21:11;;;;;;;1.38;1.25;;;19.60;87.90;;;;;;5037639;28;20037;-61
2023/08/27 10:23:40;;;;;;;1.13;1.00;;;19.70;87.90;;;;;;5036405;28;20180;-61
2023/08/27 10:26:06;;;;;;;1.95;1.17;;;19.60;88.10;;;;;;5033426;28;20519;-62
2023/08/27 10:28:35;;;;;;;1.90;1.25;;;19.60;88.30;;;;;;5032136;28;20120;-62
2023/08/27 10:31:05;;;;;;;1.30;1.15;;;19.60;88.30;;;;;;5035282;28;20037;-61
2023/08/27 10:33:31;;;;;;;1.60;1.15;;;19.60;88.30;;;;;;5021612;28;20468;-61
2023/08/27 10:36:01;;;;;;;2.63;0.90;;;19.60;88.30;;;;;;5032646;28;20402;-62
2023/08/27 10:38:29;;;;;;;1.02;0.93;;;19.60;88.00;;;;;;5030193;28;20037;-62
2023/08/27 10:40:55;;;;;;;1.20;1.00;;;19.60;87.80;;;;;;5031941;28;20033;-62
2023/08/27 10:43:21;;;;;;;1.10;1.00;;;19.60;87.80;;;;;;5033519;28;20211;-62
2023/08/27 10:45:50;;;;;;;1.10;1.00;;;19.60;87.60;;;;;;5033340;28;20052;-62
2023/08/27 10:48:16;;;;;;;1.23;0.93;;;19.60;87.80;;;;;;5032197;28;20055;-62
2023/08/27 10:51:08;;;;;;;1.25;1.00;;;19.60;87.80;;;;;;5034640;28;20126;-62
2023/08/27 10:54:00;;;;;;;2.17;1.10;;;19.70;87.60;;;;;;5034829;28;20099;-61
2023/08/27 10:56:35;;;;;;;1.25;1.00;;;19.70;87.40;;;;;;5031195;28;20048;-61
2023/08/27 10:59:01;;;;;;;1.17;0.90;;;19.70;87.60;;;;;;5027522;28;20134;-59
2023/08/27 11:01:28;;;;;;;1.23;1.10;;;19.70;87.30;;;;;;5029534;28;20127;-62
2023/08/27 11:04:01;;;;;;;2.10;1.10;;;19.70;87.50;;;;;;5033066;28;20149;-61
2023/08/27 11:06:46;;;;;;;3.35;1.58;;;19.70;87.10;;;;;;5032013;28;20032;-61
2023/08/27 11:09:16;;;;;;;1.13;1.02;;;19.70;87.10;;;;;;5030012;28;20146;-62
2023/08/27 11:12:00;;;;;;;1.10;1.00;;;19.70;87.00;;;;;;5026788;28;20568;-62
2023/08/27 11:14:26;;;;;;;1.40;0.90;;;19.70;88.10;;;;;;5029615;28;20082;-62
2023/08/27 11:16:58;;;;;;;0.90;0.90;;;19.60;87.10;;;;;;5029198;28;20045;-62
2023/08/27 11:19:45;;;;;;;0.80;0.70;;;19.60;87.40;;;;;;5031888;28;20045;-62
2023/08/27 11:22:13;;;;;;;0.95;0.90;;;19.60;87.80;;;;;;5031294;28;20044;-62
2023/08/27 11:24:43;;;;;;;1.10;0.90;;;19.60;88.00;;;;;;5030962;28;20029;-62
2023/08/27 11:27:10;;;;;;;1.35;1.00;;;19.60;88.10;;;;;;5032866;28;20442;-62
2023/08/27 11:29:42;;;;;;;0.95;0.85;;;19.60;88.10;;;;;;5029927;28;20040;-61
2023/08/27 11:32:09;;;;;;;0.90;0.75;;;19.60;88.00;;;;;;5031624;28;20550;-61
2023/08/27 11:34:39;;;;;;;1.20;0.82;;;19.60;87.30;;;;;;5030244;28;20048;-62
2023/08/27 11:37:06;;;;;;;0.63;0.63;;;19.60;87.30;;;;;;5032282;28;20041;-62
2023/08/27 11:39:33;;;;;;;1.42;0.60;;;19.50;87.60;;;;;;5031297;28;20542;-62
2023/08/27 11:41:59;;;;;;;2.15;0.65;;;19.50;87.20;;;;;;5032504;28;20087;-62
2023/08/27 11:44:25;;;;;;;0.95;0.70;;;19.50;87.00;;;;;;5034700;28;20507;-61
2023/08/27 11:46:51;;;;;;;0.90;0.60;;;19.40;86.90;;;;;;5034779;28;20045;-61
2023/08/27 11:49:28;;;;;;;0.95;0.60;;;19.40;86.60;;;;;;5034962;28;20045;-62
2023/08/27 11:51:56;;;;;;;0.60;0.60;;;19.40;86.20;;;;;;5030571;28;20041;-61
2023/08/27 11:54:24;;;;;;;0.77;0.60;;;19.40;86.60;;;;;;5033858;28;20428;-61
2023/08/27 11:56:51;;;;;;;0.40;0.40;;;19.40;86.80;;;;;;5034625;28;20670;-62
2023/08/27 11:59:17;;;;;;;0.77;0.45;;;19.40;86.80;;;;;;5032572;28;20126;-62
2023/08/27 12:01:43;;;;;;;0.57;0.43;;;19.30;86.20;;;;;;5034286;28;20038;-62
2023/08/27 12:04:11;;;;;;;0.60;0.50;;;19.30;86.20;;;;;;5033192;28;20139;-61
2023/08/27 12:06:36;;;;;;;2.47;0.47;;;19.30;86.10;;;;;;5031713;28;20037;-60
2023/08/27 12:09:03;;;;;;;1.33;0.30;;;19.30;86.20;;;;;;5033366;28;20040;-62
2023/08/27 12:11:30;;;;;;;0.40;0.40;;;19.20;86.20;;;;;;5031045;28;20029;-62
2023/08/27 12:13:59;;;;;;;0.38;0.35;;;19.20;86.40;;;;;;5034101;28;20033;-61
2023/08/27 12:16:32;;;;;;;0.50;0.40;;;19.20;86.20;;;;;;5033279;28;20094;-60
2023/08/27 12:19:08;;;;;;;0.40;0.40;;;19.10;86.60;;;;;;5030667;28;20037;-59
2023/08/27 12:22:06;;;;;;;0.63;0.40;;;19.20;86.40;;;;;;5034045;28;20044;-62
2023/08/27 12:24:35;;;;;;;0.40;0.35;;;19.20;86.70;;;;;;5039494;28;20037;-61
2023/08/27 12:27:07;;;;;;;0.55;0.40;;;19.20;87.00;;;;;;5031571;28;20120;-62
2023/08/27 12:29:38;;;;;;;0.43;0.30;;;19.20;87.10;;;;;;5033183;28;20038;-62
2023/08/27 12:32:34;;;;;;;1.30;0.35;;;19.30;86.90;;;;;;5033910;28;20045;-61
2023/08/27 12:35:00;;;;;;;0.70;0.40;;;19.30;86.60;;;;;;5031943;28;20040;-62
2023/08/27 12:37:26;;;;;;;0.60;0.40;;;19.20;86.60;;;;;;5028268;28;20048;-60
2023/08/27 12:39:51;;;;;;;0.45;0.25;;;19.20;86.20;;;;;;5030441;28;20030;-62
2023/08/27 12:42:18;;;;;;;0.50;0.32;;;19.20;86.40;;;;;;5030686;28;20033;-60
2023/08/27 12:44:44;;;;;;;0.60;0.40;;;19.10;86.40;;;;;;5031447;28;20124;-62
2023/08/27 12:47:11;;;;;;;0.68;0.50;;;19.10;86.70;;;;;;5031231;28;20222;-60
2023/08/27 12:49:37;;;;;;;1.58;0.40;;;19.20;87.00;;;;;;5030290;28;20600;-62